Time;durP1;ratioP1;P1;durP2;ratioP2;P2;SDS_P1;SDS_P2;PMS_P1;PMS_P2;Temp;Humidity;BMP_temperature;BMP_pressure;BME280_temperature;BME280_humidity;BME280_pressure;Samples;Min_cycle;Max_cycle;Signal;HPM_P1;HPM_P2
2021/10/30 00:02:21;;;;;;;48.20;28.48;;;8.10;99.90;;;;;;4854435;29;20464;-93
2021/10/30 00:04:48;;;;;;;42.53;27.40;;;8.10;99.90;;;;;;4839123;29;20193;-88
2021/10/30 00:07:15;;;;;;;40.55;28.80;;;8.10;99.90;;;;;;4845571;29;20209;-88
2021/10/30 00:09:42;;;;;;;41.00;27.77;;;8.10;99.90;;;;;;4831139;29;20217;-87
2021/10/30 00:12:09;;;;;;;50.20;29.10;;;8.10;99.90;;;;;;4830130;29;20249;-94
2021/10/30 00:14:35;;;;;;;40.75;27.20;;;8.10;99.90;;;;;;4830161;29;20240;-93
2021/10/30 00:17:03;;;;;;;43.55;28.15;;;8.20;99.90;;;;;;4830361;29;20181;-88
2021/10/30 00:19:29;;;;;;;45.25;30.15;;;8.20;99.90;;;;;;4845984;29;20678;-89
2021/10/30 00:21:55;;;;;;;44.50;30.60;;;8.20;99.90;;;;;;4828877;29;20228;-86
2021/10/30 00:24:21;;;;;;;44.77;29.50;;;8.10;99.90;;;;;;4842398;29;20236;-87
2021/10/30 00:26:47;;;;;;;47.20;31.05;;;8.00;99.90;;;;;;4843613;29;20213;-86
2021/10/30 00:29:13;;;;;;;46.53;30.90;;;7.90;99.90;;;;;;4843006;29;20181;-93
2021/10/30 00:31:39;;;;;;;42.50;29.83;;;7.80;99.90;;;;;;4839508;29;20186;-87
2021/10/30 00:34:05;;;;;;;46.55;31.50;;;7.70;99.90;;;;;;4843671;29;20227;-93
2021/10/30 00:36:32;;;;;;;51.23;32.10;;;7.60;99.90;;;;;;4846165;29;20189;-86
2021/10/30 00:38:58;;;;;;;46.72;30.77;;;7.50;99.90;;;;;;4827678;29;20237;-93
2021/10/30 00:41:25;;;;;;;40.00;29.10;;;7.50;99.90;;;;;;4829680;29;20707;-86
2021/10/30 00:43:51;;;;;;;40.03;26.23;;;7.50;99.90;;;;;;4827185;29;20197;-86
2021/10/30 00:46:17;;;;;;;44.30;28.38;;;7.40;99.90;;;;;;4826613;29;20703;-87
2021/10/30 00:48:44;;;;;;;36.58;26.13;;;7.40;99.90;;;;;;4825850;29;20280;-91
2021/10/30 00:51:12;;;;;;;40.65;27.45;;;7.30;99.90;;;;;;4843532;29;20209;-93
2021/10/30 00:53:41;;;;;;;36.00;24.70;;;7.30;99.90;;;;;;4829913;29;20778;-88
2021/10/30 00:56:09;;;;;;;43.35;28.15;;;7.20;99.90;;;;;;4838084;29;20715;-87
2021/10/30 00:58:36;;;;;;;48.90;31.38;;;7.20;99.90;;;;;;4831298;29;20189;-92
2021/10/30 01:01:04;;;;;;;36.70;28.50;;;7.10;99.90;;;;;;4846544;29;20201;-92
2021/10/30 01:03:35;;;;;;;46.97;30.90;;;7.00;99.90;;;;;;4847167;29;20194;-87
2021/10/30 01:06:01;;;;;;;49.70;32.22;;;7.00;99.90;;;;;;4845395;29;20691;-91
2021/10/30 01:08:27;;;;;;;44.60;30.00;;;6.90;99.90;;;;;;4838071;29;20192;-92
2021/10/30 01:10:54;;;;;;;45.38;30.02;;;6.90;99.90;;;;;;4847049;29;20193;-92
2021/10/30 01:13:23;;;;;;;43.80;28.05;;;6.80;99.90;;;;;;4851931;29;20185;-86
2021/10/30 01:15:49;;;;;;;45.33;27.90;;;6.80;99.90;;;;;;4827983;29;20205;-87
2021/10/30 01:18:15;;;;;;;38.67;27.10;;;6.80;99.90;;;;;;4830028;29;20683;-92
2021/10/30 01:20:40;;;;;;;45.70;28.97;;;6.80;99.90;;;;;;4844924;29;20204;-87
2021/10/30 01:23:08;;;;;;;40.05;27.30;;;6.80;99.90;;;;;;4833543;29;20185;-86
2021/10/30 01:25:34;;;;;;;46.58;28.13;;;6.70;99.90;;;;;;4846426;29;20218;-91
2021/10/30 01:28:00;;;;;;;36.83;27.70;;;6.70;99.90;;;;;;4848261;29;20213;-87
2021/10/30 01:30:29;;;;;;;37.70;26.65;;;6.70;99.90;;;;;;4857926;29;20447;-88
2021/10/30 01:33:04;;;;;;;37.38;25.95;;;6.80;99.90;;;;;;4870055;29;20231;-92
2021/10/30 01:35:35;;;;;;;42.28;26.77;;;6.90;99.90;;;;;;4853997;29;20212;-93
2021/10/30 01:38:02;;;;;;;35.10;26.05;;;6.90;99.90;;;;;;4862459;29;20555;-86
2021/10/30 01:40:29;;;;;;;42.47;28.08;;;7.00;99.90;;;;;;4828328;29;20240;-93
2021/10/30 01:43:03;;;;;;;43.03;28.38;;;7.00;99.90;;;;;;4829440;29;20543;-87
2021/10/30 01:45:30;;;;;;;39.10;26.90;;;7.00;99.90;;;;;;4829414;29;20226;-87
2021/10/30 01:47:56;;;;;;;37.60;26.02;;;6.90;99.90;;;;;;4829763;29;20228;-92
2021/10/30 01:50:23;;;;;;;37.95;27.13;;;7.00;99.90;;;;;;4829940;29;20312;-93
2021/10/30 01:52:49;;;;;;;42.15;25.85;;;6.90;99.90;;;;;;4845461;29;20196;-92
2021/10/30 01:55:18;;;;;;;39.35;27.52;;;6.80;99.90;;;;;;4829730;29;20209;-88
2021/10/30 01:57:46;;;;;;;43.30;27.38;;;6.80;99.90;;;;;;4829172;29;20193;-87
2021/10/30 02:00:13;;;;;;;37.72;26.98;;;6.80;99.90;;;;;;4829384;29;20300;-93
2021/10/30 02:02:39;;;;;;;38.70;26.23;;;6.70;99.90;;;;;;4828762;29;20310;-93
2021/10/30 02:05:07;;;;;;;39.22;25.67;;;6.70;99.90;;;;;;4828894;29;20224;-87
2021/10/30 02:07:33;;;;;;;41.33;27.27;;;6.70;99.90;;;;;;4829494;29;20224;-87
2021/10/30 02:09:59;;;;;;;36.28;25.67;;;6.60;99.90;;;;;;4844786;29;20233;-85
2021/10/30 02:12:25;;;;;;;45.60;28.43;;;6.60;99.90;;;;;;4828693;29;20222;-85
2021/10/30 02:14:51;;;;;;;37.47;26.70;;;6.60;99.90;;;;;;4829588;29;20472;-84
2021/10/30 02:17:18;;;;;;;41.78;27.25;;;6.50;99.90;;;;;;4845751;29;20387;-84
2021/10/30 02:19:43;;;;;;;41.83;28.75;;;6.50;99.90;;;;;;4847180;29;20567;-90
2021/10/30 02:22:09;;;;;;;37.20;27.30;;;6.40;99.90;;;;;;4830398;29;20182;-90
2021/10/30 02:24:36;;;;;;;41.35;28.95;;;6.40;99.90;;;;;;4845040;29;20300;-84
2021/10/30 02:27:02;;;;;;;42.08;27.33;;;6.40;99.90;;;;;;4827791;29;20244;-84
2021/10/30 02:29:29;;;;;;;43.25;27.70;;;6.40;99.90;;;;;;4847620;29;20221;-85
2021/10/30 02:31:54;;;;;;;44.03;28.07;;;6.30;99.90;;;;;;4838965;29;20204;-89
2021/10/30 02:34:20;;;;;;;41.33;27.30;;;6.20;99.90;;;;;;4846880;29;20459;-87
2021/10/30 02:36:47;;;;;;;44.30;28.47;;;6.20;99.90;;;;;;4843605;29;20166;-84
2021/10/30 02:39:13;;;;;;;40.08;27.25;;;6.20;99.90;;;;;;4827948;29;20476;-89
2021/10/30 02:41:54;;;;;;;38.63;27.07;;;6.20;99.90;;;;;;4828332;29;20532;-88
2021/10/30 02:44:20;;;;;;;35.40;25.73;;;6.10;99.90;;;;;;4845004;29;20209;-91
2021/10/30 02:46:45;;;;;;;39.10;27.27;;;6.10;99.90;;;;;;4828128;29;20231;-90
2021/10/30 02:49:11;;;;;;;39.47;27.40;;;6.10;99.90;;;;;;4828362;29;20193;-84
2021/10/30 02:51:37;;;;;;;42.10;27.50;;;6.00;99.90;;;;;;4827801;29;20388;-85
2021/10/30 02:54:04;;;;;;;42.88;28.77;;;6.00;99.90;;;;;;4860807;29;20193;-85
2021/10/30 02:56:31;;;;;;;45.60;27.38;;;6.00;99.90;;;;;;4834375;29;20276;-84
2021/10/30 02:58:57;;;;;;;39.30;26.90;;;5.90;99.90;;;;;;4833711;29;20232;-84
2021/10/30 03:01:23;;;;;;;38.40;27.33;;;5.90;99.90;;;;;;4832454;29;20186;-89
2021/10/30 03:03:48;;;;;;;43.20;28.17;;;5.90;99.90;;;;;;4830852;29;20443;-90
2021/10/30 03:06:15;;;;;;;45.93;30.57;;;5.90;99.90;;;;;;4830007;29;20484;-85
2021/10/30 03:08:41;;;;;;;38.78;27.58;;;6.10;99.90;;;;;;4830722;29;20265;-89
2021/10/30 03:11:06;;;;;;;38.83;28.00;;;6.10;99.90;;;;;;4844286;29;20243;-90
2021/10/30 03:13:33;;;;;;;42.57;27.87;;;6.20;99.90;;;;;;4844869;29;20185;-84
2021/10/30 03:15:59;;;;;;;45.38;27.95;;;6.20;99.90;;;;;;4827666;29;20197;-90
2021/10/30 03:18:25;;;;;;;42.80;28.87;;;6.20;99.90;;;;;;4827841;29;20678;-90
2021/10/30 03:20:51;;;;;;;41.27;27.63;;;6.20;99.90;;;;;;4827939;29;20204;-86
2021/10/30 03:23:18;;;;;;;42.50;27.65;;;6.20;99.90;;;;;;4828068;29;20197;-85
2021/10/30 03:25:43;;;;;;;42.87;28.53;;;6.20;99.90;;;;;;4827764;29;20208;-90
2021/10/30 03:28:09;;;;;;;48.03;28.93;;;6.20;99.90;;;;;;4828172;29;20299;-85
2021/10/30 03:30:36;;;;;;;36.67;26.57;;;6.20;99.90;;;;;;4850890;29;20197;-90
2021/10/30 03:33:02;;;;;;;43.08;26.52;;;6.10;99.90;;;;;;4836212;29;20424;-91
2021/10/30 03:35:29;;;;;;;44.17;28.88;;;6.10;99.90;;;;;;4828635;29;20577;-91
2021/10/30 03:37:56;;;;;;;56.15;33.85;;;6.10;99.90;;;;;;4827980;29;20185;-85
2021/10/30 03:40:22;;;;;;;51.15;33.33;;;6.10;99.90;;;;;;4828269;29;20252;-85
2021/10/30 03:42:47;;;;;;;50.37;32.50;;;6.00;99.90;;;;;;4827426;29;20644;-86
2021/10/30 03:45:13;;;;;;;54.80;31.00;;;6.00;99.90;;;;;;4830436;29;20455;-91
2021/10/30 03:47:39;;;;;;;43.37;29.70;;;6.00;99.90;;;;;;4846507;29;20213;-91
2021/10/30 03:50:05;;;;;;;46.33;28.70;;;6.00;99.90;;;;;;4830795;29;20209;-91
2021/10/30 03:52:31;;;;;;;46.83;29.33;;;6.10;99.90;;;;;;4828189;29;20183;-90
2021/10/30 03:54:59;;;;;;;37.47;28.50;;;6.10;99.90;;;;;;4829132;29;20213;-85
2021/10/30 03:57:24;;;;;;;37.85;25.92;;;6.20;99.90;;;;;;4827516;29;20196;-91
2021/10/30 03:59:51;;;;;;;41.03;27.87;;;6.20;99.90;;;;;;4827450;29;20220;-85
2021/10/30 04:02:16;;;;;;;38.03;27.55;;;6.20;99.90;;;;;;4827691;29;20538;-89
2021/10/30 04:04:42;;;;;;;44.90;27.63;;;6.20;99.90;;;;;;4839130;29;20220;-91
2021/10/30 04:07:10;;;;;;;48.37;29.77;;;6.10;99.90;;;;;;4842714;29;20495;-85
2021/10/30 04:09:35;;;;;;;42.85;28.40;;;6.10;99.90;;;;;;4844333;29;20232;-91
2021/10/30 04:12:01;;;;;;;43.93;27.17;;;6.20;99.90;;;;;;4843415;29;20173;-89
2021/10/30 04:14:27;;;;;;;45.50;29.70;;;6.20;99.90;;;;;;4827016;29;20232;-90
2021/10/30 04:16:53;;;;;;;50.88;31.67;;;6.20;99.90;;;;;;4828251;29;20181;-85
2021/10/30 04:19:19;;;;;;;52.25;31.58;;;6.20;99.90;;;;;;4827995;29;20220;-85
2021/10/30 04:21:45;;;;;;;47.90;31.00;;;6.20;99.90;;;;;;4830691;29;20185;-86
2021/10/30 04:24:12;;;;;;;42.75;27.77;;;6.10;99.90;;;;;;4835154;29;20589;-91
2021/10/30 04:26:39;;;;;;;47.92;29.13;;;6.00;99.90;;;;;;4827373;29;20213;-90
2021/10/30 04:29:06;;;;;;;50.63;31.80;;;6.00;99.90;;;;;;4843680;29;20193;-88
2021/10/30 04:31:33;;;;;;;44.88;29.17;;;6.00;99.90;;;;;;4827089;29;20220;-85
2021/10/30 04:34:01;;;;;;;46.00;29.20;;;6.10;99.90;;;;;;4843553;29;20204;-85
2021/10/30 04:36:29;;;;;;;42.30;27.30;;;6.10;99.90;;;;;;4843415;29;20170;-91
2021/10/30 04:38:56;;;;;;;42.42;27.90;;;6.20;99.90;;;;;;4826625;29;20249;-90
2021/10/30 04:41:22;;;;;;;44.08;28.02;;;6.20;99.90;;;;;;4844086;29;20572;-91
2021/10/30 04:43:48;;;;;;;46.30;28.40;;;6.20;99.90;;;;;;4827123;29;20531;-85
2021/10/30 04:46:17;;;;;;;43.55;28.83;;;6.30;99.90;;;;;;4829836;29;20233;-85
2021/10/30 04:48:43;;;;;;;46.90;29.88;;;6.30;99.90;;;;;;4844121;29;20196;-91
2021/10/30 04:51:09;;;;;;;46.92;29.45;;;6.20;99.90;;;;;;4829921;29;20205;-85
2021/10/30 04:53:38;;;;;;;41.95;28.33;;;6.20;99.90;;;;;;4831082;29;20280;-91
2021/10/30 04:56:05;;;;;;;43.42;29.80;;;6.20;99.90;;;;;;4830543;29;20229;-90
2021/10/30 04:58:31;;;;;;;40.53;28.45;;;6.10;99.90;;;;;;4846681;29;20578;-91
2021/10/30 05:00:58;;;;;;;47.10;29.50;;;6.10;99.90;;;;;;4830294;29;20240;-90
2021/10/30 05:03:24;;;;;;;43.28;29.05;;;6.10;99.90;;;;;;4831435;29;20193;-89
2021/10/30 05:05:51;;;;;;;52.43;32.43;;;6.00;99.90;;;;;;4831445;29;20319;-90
2021/10/30 05:08:17;;;;;;;48.28;33.50;;;6.00;99.90;;;;;;4831358;29;20470;-89
2021/10/30 05:10:43;;;;;;;53.22;34.30;;;6.00;99.90;;;;;;4830040;29;20215;-85
2021/10/30 05:13:10;;;;;;;47.65;31.75;;;5.90;99.90;;;;;;4846458;29;20205;-85
2021/10/30 05:15:37;;;;;;;46.80;28.00;;;5.90;99.90;;;;;;4839094;29;20231;-85
2021/10/30 05:18:03;;;;;;;40.80;26.90;;;5.90;99.90;;;;;;4829334;29;20182;-91
2021/10/30 05:20:29;;;;;;;51.92;30.70;;;5.80;99.90;;;;;;4829478;29;20273;-85
2021/10/30 05:22:56;;;;;;;44.97;28.35;;;5.80;99.90;;;;;;4830427;29;20276;-85
2021/10/30 05:25:23;;;;;;;44.55;31.15;;;5.80;99.90;;;;;;4829442;29;20747;-91
2021/10/30 05:27:50;;;;;;;44.03;29.63;;;5.70;99.90;;;;;;4829710;29;20220;-85
2021/10/30 05:30:16;;;;;;;44.90;30.25;;;5.70;99.90;;;;;;4845846;29;20586;-86
2021/10/30 05:32:42;;;;;;;44.88;29.35;;;5.80;99.90;;;;;;4829176;29;20177;-91
2021/10/30 05:35:09;;;;;;;40.80;28.03;;;5.80;99.90;;;;;;4847752;29;20265;-85
2021/10/30 05:37:34;;;;;;;47.58;31.45;;;5.80;99.90;;;;;;4829605;29;20564;-90
2021/10/30 05:40:03;;;;;;;51.33;29.97;;;5.90;99.90;;;;;;4829867;29;20245;-87
2021/10/30 05:42:28;;;;;;;46.85;27.95;;;5.90;99.90;;;;;;4831081;29;20181;-91
2021/10/30 05:44:55;;;;;;;40.03;27.90;;;5.80;99.90;;;;;;4839726;29;20227;-85
2021/10/30 05:47:21;;;;;;;45.97;31.08;;;5.80;99.90;;;;;;4831367;29;20221;-86
2021/10/30 05:49:47;;;;;;;52.42;31.58;;;5.90;99.90;;;;;;4831131;29;20695;-91
2021/10/30 05:52:13;;;;;;;51.47;29.27;;;5.90;99.90;;;;;;4828895;29;20177;-90
2021/10/30 05:54:39;;;;;;;48.27;30.37;;;6.00;99.90;;;;;;4828798;29;20542;-92
2021/10/30 05:57:08;;;;;;;48.90;31.77;;;6.10;99.90;;;;;;4844610;29;20392;-89
2021/10/30 05:59:34;;;;;;;47.38;30.55;;;6.10;99.90;;;;;;4828890;29;20220;-92
2021/10/30 06:01:59;;;;;;;46.60;29.33;;;6.20;99.90;;;;;;4830595;29;20181;-91
2021/10/30 06:04:25;;;;;;;46.30;30.27;;;6.30;99.90;;;;;;4829169;29;20898;-90
2021/10/30 06:06:51;;;;;;;49.77;31.47;;;6.40;99.90;;;;;;4828827;29;20705;-86
2021/10/30 06:09:18;;;;;;;45.50;31.93;;;6.40;99.90;;;;;;4828943;29;20217;-86
2021/10/30 06:11:43;;;;;;;44.95;29.73;;;6.50;99.90;;;;;;4831116;29;20403;-91
2021/10/30 06:14:11;;;;;;;43.23;29.07;;;6.60;99.90;;;;;;4831329;29;20189;-86
2021/10/30 06:16:38;;;;;;;48.63;30.40;;;6.70;99.90;;;;;;4842196;29;20189;-86
2021/10/30 06:19:04;;;;;;;48.53;30.65;;;6.80;99.90;;;;;;4831510;29;20249;-86
2021/10/30 06:21:31;;;;;;;43.00;28.25;;;6.90;99.90;;;;;;4829675;29;20192;-86
2021/10/30 06:23:59;;;;;;;39.47;27.08;;;7.00;99.90;;;;;;4828937;29;20521;-85
2021/10/30 06:26:27;;;;;;;42.67;28.20;;;7.10;99.90;;;;;;4828631;29;20213;-91
2021/10/30 06:28:54;;;;;;;43.15;28.38;;;7.20;99.90;;;;;;4829025;29;20201;-92
2021/10/30 06:31:20;;;;;;;37.17;26.52;;;7.20;99.90;;;;;;4848603;29;20207;-86
2021/10/30 06:33:46;;;;;;;43.50;28.58;;;7.40;99.90;;;;;;4832120;29;20213;-92
2021/10/30 06:36:12;;;;;;;45.70;28.73;;;7.40;99.90;;;;;;4845418;29;20243;-91
2021/10/30 06:38:38;;;;;;;44.03;28.10;;;7.50;99.90;;;;;;4834251;29;20190;-86
2021/10/30 06:41:06;;;;;;;45.55;29.02;;;7.70;99.90;;;;;;4827851;29;20457;-85
2021/10/30 06:43:33;;;;;;;46.28;28.55;;;7.80;99.90;;;;;;4827967;29;20640;-91
2021/10/30 06:45:59;;;;;;;49.78;31.25;;;7.90;99.90;;;;;;4830163;29;20234;-92
2021/10/30 06:48:27;;;;;;;44.60;30.90;;;8.00;99.90;;;;;;4828422;29;20528;-86
2021/10/30 06:50:55;;;;;;;52.22;32.47;;;8.10;99.90;;;;;;4828169;29;20212;-92
2021/10/30 06:53:21;;;;;;;47.47;31.58;;;8.20;99.90;;;;;;4844494;29;20181;-91
2021/10/30 06:55:49;;;;;;;51.77;32.00;;;8.40;99.90;;;;;;4827976;29;20212;-88
2021/10/30 06:58:18;;;;;;;51.28;32.13;;;8.40;99.90;;;;;;4829757;29;20196;-85
2021/10/30 07:00:44;;;;;;;53.88;31.48;;;8.60;99.90;;;;;;4829849;29;20209;-85
2021/10/30 07:03:11;;;;;;;50.83;35.53;;;8.80;99.90;;;;;;4827953;29;20182;-85
2021/10/30 07:05:39;;;;;;;49.97;31.48;;;9.00;99.90;;;;;;4827664;29;20260;-86
2021/10/30 07:08:05;;;;;;;46.17;31.58;;;9.20;99.90;;;;;;4850044;29;20288;-92
2021/10/30 07:10:32;;;;;;;49.00;30.43;;;9.40;99.90;;;;;;4827625;29;20239;-86
2021/10/30 07:12:57;;;;;;;43.70;28.95;;;9.70;99.90;;;;;;4842302;29;20604;-86
2021/10/30 07:15:24;;;;;;;38.13;28.87;;;9.90;99.90;;;;;;4844303;29;20236;-86
2021/10/30 07:17:50;;;;;;;44.58;28.05;;;10.20;99.90;;;;;;4829909;29;20503;-86
2021/10/30 07:20:16;;;;;;;38.85;27.67;;;10.40;99.90;;;;;;4832093;29;20312;-86
2021/10/30 07:22:44;;;;;;;39.53;27.63;;;10.60;99.90;;;;;;4828526;29;20213;-86
2021/10/30 07:25:10;;;;;;;38.03;26.38;;;10.80;99.90;;;;;;4828493;29;20245;-91
2021/10/30 07:27:37;;;;;;;35.10;26.10;;;11.10;99.90;;;;;;4840624;29;20799;-86
2021/10/30 07:30:05;;;;;;;40.03;26.63;;;11.40;99.90;;;;;;4836324;29;20288;-86
2021/10/30 07:32:31;;;;;;;32.50;23.80;;;11.70;99.90;;;;;;4833491;29;20196;-87
2021/10/30 07:34:57;;;;;;;30.67;24.30;;;12.20;99.90;;;;;;4828056;29;20201;-87
2021/10/30 07:37:23;;;;;;;35.80;25.63;;;12.80;99.90;;;;;;4827572;29;20808;-92
2021/10/30 07:39:49;;;;;;;31.77;23.07;;;13.50;99.90;;;;;;4827146;29;20488;-87
2021/10/30 07:42:15;;;;;;;31.93;22.53;;;14.30;99.90;;;;;;4828141;29;20220;-87
2021/10/30 07:44:42;;;;;;;29.50;22.70;;;15.10;99.90;;;;;;4827519;29;20520;-94
2021/10/30 07:47:08;;;;;;;31.80;22.40;;;15.70;99.90;;;;;;4829700;29;20835;-92
2021/10/30 07:49:38;;;;;;;30.93;22.60;;;16.40;99.90;;;;;;4830841;29;20470;-87
2021/10/30 07:52:06;;;;;;;30.47;23.57;;;16.90;99.90;;;;;;4828439;29;20431;-87
2021/10/30 07:54:33;;;;;;;31.70;23.47;;;17.60;99.90;;;;;;4839080;29;20468;-87
2021/10/30 07:57:04;;;;;;;29.47;23.10;;;18.10;99.90;;;;;;4844646;29;20412;-88
2021/10/30 07:59:33;;;;;;;31.20;22.70;;;18.60;99.90;;;;;;4843159;29;20497;-92
2021/10/30 08:01:59;;;;;;;28.13;22.10;;;19.00;99.90;;;;;;4842943;29;20427;-94
2021/10/30 08:04:25;;;;;;;28.80;22.23;;;19.30;99.80;;;;;;4828511;29;20564;-93
2021/10/30 08:06:53;;;;;;;30.60;21.63;;;19.60;99.30;;;;;;4827408;29;20603;-87
2021/10/30 08:09:19;;;;;;;27.80;21.03;;;19.90;98.50;;;;;;4841556;29;20210;-87
2021/10/30 08:11:45;;;;;;;24.03;19.80;;;20.20;98.10;;;;;;4827646;29;20440;-93
2021/10/30 08:14:12;;;;;;;28.10;20.03;;;20.60;97.40;;;;;;4826989;29;20502;-88
2021/10/30 08:16:39;;;;;;;25.70;19.67;;;20.90;96.90;;;;;;4841941;29;20513;-93
2021/10/30 08:19:05;;;;;;;22.17;17.13;;;21.30;96.40;;;;;;4829186;29;21011;-87
2021/10/30 08:21:32;;;;;;;21.93;18.73;;;21.60;95.40;;;;;;4830844;29;20522;-87
2021/10/30 08:23:59;;;;;;;23.97;18.30;;;21.60;94.80;;;;;;4830564;29;20757;-87
2021/10/30 08:26:25;;;;;;;24.87;18.47;;;21.40;94.60;;;;;;4847097;29;20597;-92
2021/10/30 08:28:52;;;;;;;24.23;17.70;;;21.00;94.70;;;;;;4830828;29;20483;-86
2021/10/30 08:31:19;;;;;;;21.87;18.50;;;20.40;95.10;;;;;;4850925;29;20432;-88
2021/10/30 08:33:45;;;;;;;21.40;18.00;;;19.70;95.70;;;;;;4833118;29;20451;-93
2021/10/30 08:36:11;;;;;;;22.27;16.40;;;19.00;96.60;;;;;;4830994;29;20452;-92
2021/10/30 08:38:37;;;;;;;20.93;17.27;;;18.60;97.30;;;;;;4856840;29;20226;-93
2021/10/30 08:41:04;;;;;;;26.10;17.67;;;18.20;97.70;;;;;;4831003;29;20495;-87
2021/10/30 08:43:31;;;;;;;21.50;17.57;;;17.90;98.30;;;;;;4832281;29;20190;-93
2021/10/30 08:45:58;;;;;;;25.37;17.37;;;17.80;98.80;;;;;;4847897;29;20469;-94
2021/10/30 08:48:32;;;;;;;20.93;15.57;;;17.60;98.70;;;;;;4831888;29;20439;-92
2021/10/30 08:51:02;;;;;;;23.13;17.90;;;17.40;99.20;;;;;;4830456;29;20815;-87
2021/10/30 08:53:29;;;;;;;24.10;16.97;;;17.10;99.70;;;;;;4845512;29;20517;-94
2021/10/30 08:55:58;;;;;;;19.40;16.13;;;16.90;99.80;;;;;;4830213;29;20441;-88
2021/10/30 08:58:27;;;;;;;24.40;16.13;;;16.80;99.90;;;;;;4847719;29;21014;-88
2021/10/30 09:00:57;;;;;;;18.90;14.47;;;16.70;99.90;;;;;;4844177;29;20464;-87
2021/10/30 09:03:24;;;;;;;20.57;16.00;;;16.60;99.90;;;;;;4847999;29;20428;-93
2021/10/30 09:05:52;;;;;;;21.17;15.90;;;16.50;99.90;;;;;;4847762;29;20451;-87
2021/10/30 09:08:23;;;;;;;20.90;14.70;;;16.40;99.90;;;;;;4857841;29;21001;-90
2021/10/30 09:10:51;;;;;;;19.57;15.17;;;16.40;99.90;;;;;;4845469;29;20440;-92
2021/10/30 09:13:22;;;;;;;20.97;15.27;;;16.40;99.90;;;;;;4829071;29;20440;-91
2021/10/30 09:15:50;;;;;;;19.90;15.83;;;16.40;99.90;;;;;;4828435;29;20456;-87
2021/10/30 09:18:34;;;;;;;20.10;15.17;;;16.40;99.90;;;;;;4848320;29;20432;-87
2021/10/30 09:21:03;;;;;;;20.00;15.27;;;16.50;99.90;;;;;;4839960;29;20468;-93
2021/10/30 09:23:31;;;;;;;20.50;15.17;;;16.60;99.90;;;;;;4859981;29;20825;-87
2021/10/30 09:26:01;;;;;;;21.77;15.93;;;16.80;99.90;;;;;;4863607;29;20448;-93
2021/10/30 09:28:33;;;;;;;20.80;15.80;;;17.20;99.90;;;;;;4865605;29;20538;-87
2021/10/30 09:33:11;;;;;;;23.00;16.00;;;17.60;99.70;;;;;;5143532;27;20588;-70
2021/10/30 09:35:45;;;;;;;19.37;15.10;;;17.70;99.80;;;;;;5114222;28;20535;-74
2021/10/30 09:38:39;;;;;;;19.70;14.90;;;17.60;99.90;;;;;;5107029;28;20780;-71
2021/10/30 09:41:23;;;;;;;20.00;13.20;;;17.50;99.70;;;;;;5104779;28;20476;-71
2021/10/30 09:44:04;;;;;;;17.93;13.57;;;17.30;99.90;;;;;;5108319;28;20424;-72
2021/10/30 09:47:00;;;;;;;15.83;12.70;;;17.10;99.90;;;;;;5108835;28;20523;-74
2021/10/30 09:49:39;;;;;;;14.87;12.30;;;17.10;99.90;;;;;;5103017;28;20967;-74
2021/10/30 09:52:08;;;;;;;18.10;13.67;;;17.10;99.90;;;;;;5110129;28;20566;-76
2021/10/30 09:54:41;;;;;;;19.40;12.83;;;17.10;99.90;;;;;;5107413;28;20451;-75
2021/10/30 09:57:13;;;;;;;16.00;13.80;;;17.20;99.90;;;;;;5087741;28;20444;-71
2021/10/30 09:59:45;;;;;;;18.23;14.10;;;17.20;99.90;;;;;;5108220;28;20497;-71
2021/10/30 10:02:33;;;;;;;15.67;12.80;;;17.20;99.90;;;;;;5109850;28;20949;-74
2021/10/30 10:07:54;;;;;;;16.60;12.83;;;17.20;99.90;;;;;;5156413;22;20495;-71
2021/10/30 10:10:22;;;;;;;20.33;11.83;;;17.20;99.90;;;;;;5061602;28;20715;-72
2021/10/30 10:12:53;;;;;;;16.10;12.97;;;17.20;99.90;;;;;;5059310;28;20473;-73
2021/10/30 10:15:21;;;;;;;21.80;13.23;;;17.30;99.90;;;;;;5047727;28;20470;-69
2021/10/30 10:17:54;;;;;;;17.30;12.60;;;17.20;99.90;;;;;;5031831;28;20439;-74
2021/10/30 10:20:23;;;;;;;16.77;13.23;;;17.30;99.90;;;;;;5057925;28;20978;-73
2021/10/30 10:22:54;;;;;;;19.57;12.80;;;17.30;99.90;;;;;;5068303;28;20998;-74
2021/10/30 10:25:34;;;;;;;16.87;13.17;;;17.40;99.90;;;;;;5063845;28;20919;-74
2021/10/30 10:28:33;;;;;;;15.73;12.57;;;17.40;99.90;;;;;;5043078;28;20522;-70
2021/10/30 10:31:16;;;;;;;17.27;13.20;;;17.40;99.90;;;;;;5040620;28;20475;-74
2021/10/30 10:34:05;;;;;;;14.20;12.47;;;17.40;99.90;;;;;;5048687;28;20530;-74
2021/10/30 10:36:35;;;;;;;15.90;12.10;;;17.40;99.90;;;;;;5046854;28;20453;-74
2021/10/30 10:39:04;;;;;;;16.40;12.70;;;17.50;99.90;;;;;;5046889;28;20408;-74
2021/10/30 10:41:44;;;;;;;16.40;13.37;;;17.50;99.90;;;;;;5046394;28;21022;-74
2021/10/30 10:44:47;;;;;;;18.20;13.13;;;17.60;99.90;;;;;;5033708;28;20426;-72
2021/10/30 10:47:55;;;;;;;17.63;12.30;;;17.80;99.80;;;;;;5018984;28;20439;-74
2021/10/30 10:50:51;;;;;;;14.47;12.73;;;17.80;99.80;;;;;;5030506;28;21025;-71
2021/10/30 10:53:19;;;;;;;15.90;12.03;;;17.80;99.50;;;;;;5017057;28;20509;-73
2021/10/30 10:55:45;;;;;;;15.67;12.10;;;17.80;99.60;;;;;;5031483;28;20496;-69
2021/10/30 10:58:16;;;;;;;17.77;12.83;;;17.80;99.60;;;;;;5031425;28;20476;-70
2021/10/30 11:01:18;;;;;;;13.90;11.30;;;17.80;99.60;;;;;;5027326;28;20467;-74
2021/10/30 11:06:42;;;;;;;17.50;12.17;;;17.90;99.60;;;;;;5094933;22;20532;-74
2021/10/30 11:09:13;;;;;;;15.60;11.87;;;18.00;99.60;;;;;;5036319;28;20442;-74
2021/10/30 11:11:41;;;;;;;15.40;11.27;;;18.10;99.60;;;;;;5055208;28;20482;-72
2021/10/30 11:14:12;;;;;;;13.70;10.07;;;18.20;99.30;;;;;;5053789;28;20413;-74
2021/10/30 11:16:46;;;;;;;11.63;9.93;;;18.20;99.00;;;;;;5053889;28;20486;-74
2021/10/30 11:19:35;;;;;;;17.43;10.93;;;18.30;98.80;;;;;;5053307;28;20927;-74
2021/10/30 11:22:15;;;;;;;11.93;9.20;;;18.40;98.30;;;;;;5055259;28;20441;-72
2021/10/30 11:25:01;;;;;;;15.13;11.30;;;18.40;98.40;;;;;;5054458;28;20617;-71
2021/10/30 11:27:31;;;;;;;15.40;10.23;;;18.50;98.30;;;;;;5054848;28;20430;-72
2021/10/30 11:30:04;;;;;;;17.93;10.57;;;18.60;98.10;;;;;;5054504;28;20496;-72
2021/10/30 11:32:35;;;;;;;15.07;10.27;;;18.70;97.70;;;;;;5054481;28;20480;-71
2021/10/30 11:35:01;;;;;;;11.03;9.93;;;18.70;97.80;;;;;;5054517;28;20454;-71
2021/10/30 11:37:48;;;;;;;11.93;8.97;;;18.80;97.30;;;;;;5054206;28;20451;-71
2021/10/30 11:40:14;;;;;;;14.87;10.47;;;18.80;97.30;;;;;;5054215;28;20457;-74
2021/10/30 11:42:47;;;;;;;9.97;8.97;;;18.80;97.30;;;;;;5055845;28;20943;-72
2021/10/30 11:45:14;;;;;;;11.97;9.90;;;18.80;97.20;;;;;;5053961;28;20534;-72
2021/10/30 11:47:42;;;;;;;17.40;10.17;;;18.80;97.10;;;;;;5054133;28;20403;-70
2021/10/30 11:50:15;;;;;;;14.53;9.40;;;18.90;97.40;;;;;;5053918;28;20545;-74
2021/10/30 11:52:51;;;;;;;11.00;9.40;;;18.90;97.00;;;;;;5054489;28;20467;-70
2021/10/30 11:55:21;;;;;;;15.03;9.40;;;19.00;97.00;;;;;;5052933;28;20454;-72
2021/10/30 11:57:48;;;;;;;14.23;10.17;;;19.00;97.10;;;;;;5053966;28;20938;-74
2021/10/30 12:00:21;;;;;;;13.20;11.17;;;19.10;96.90;;;;;;5053664;28;20451;-74
2021/10/30 12:03:07;;;;;;;12.47;9.87;;;19.00;96.80;;;;;;5054246;28;20444;-71
2021/10/30 12:05:34;;;;;;;11.17;9.97;;;19.10;96.70;;;;;;5052872;28;20565;-70
2021/10/30 12:08:07;;;;;;;12.87;10.03;;;19.10;96.70;;;;;;5053710;28;21001;-72
2021/10/30 12:10:43;;;;;;;10.77;9.57;;;19.10;96.60;;;;;;5053740;28;20459;-74
2021/10/30 12:13:11;;;;;;;11.50;9.23;;;19.10;96.50;;;;;;5053377;28;20995;-74
2021/10/30 12:15:40;;;;;;;40.30;23.10;;;19.10;96.80;;;;;;5051606;28;20814;-72
2021/10/30 12:18:07;;;;;;;13.00;9.70;;;19.10;96.90;;;;;;5051889;28;20996;-72
2021/10/30 12:20:43;;;;;;;16.60;11.17;;;19.20;96.50;;;;;;5051144;28;20466;-70
2021/10/30 12:26:51;;;;;;;13.10;9.83;;;19.30;96.90;;;;;;5299859;22;20884;-74
2021/10/30 12:29:24;;;;;;;12.10;8.03;;;19.30;95.80;;;;;;5095768;28;20454;-74
2021/10/30 12:32:17;;;;;;;10.10;9.10;;;19.40;95.80;;;;;;5095264;28;20473;-74
2021/10/30 12:35:00;;;;;;;14.93;11.43;;;19.40;95.80;;;;;;5092855;28;20545;-75
2021/10/30 12:37:32;;;;;;;13.57;9.80;;;19.50;95.80;;;;;;5094909;28;20425;-75
2021/10/30 12:40:04;;;;;;;12.87;8.93;;;19.50;95.60;;;;;;5094415;28;20450;-72
2021/10/30 12:42:34;;;;;;;11.30;9.40;;;19.50;95.40;;;;;;5095387;28;20544;-71
2021/10/30 12:45:05;;;;;;;10.20;8.17;;;19.60;95.20;;;;;;5095059;28;21031;-72
2021/10/30 12:47:46;;;;;;;12.23;9.63;;;19.60;95.10;;;;;;5095756;28;20930;-75
2021/10/30 12:50:25;;;;;;;12.87;9.73;;;19.60;95.10;;;;;;5095341;28;20508;-74
2021/10/30 12:52:54;;;;;;;15.33;9.20;;;19.60;94.90;;;;;;5094726;28;20518;-74
2021/10/30 12:55:23;;;;;;;12.23;9.50;;;19.60;95.20;;;;;;5095211;28;20604;-75